KVGT/VGT METAR and TAF weather

Enter ICAO airport designator
Station Type Date Time Source
KVGT METAR 2021/07/27 22:53 UTC NOAA

KVGT 272253Z 10SM CLR 38/09 A2994 RMK AO2 SLP127 T03830094 PNO


Station Type Date Time Source
KVGT Decoded METAR 2021/07/27 22:53 UTC NOAA

NORTH LAS VEGAS, NV, United States (KVGT) 36-12N 115-11W
Jul 27, 2021 - 06:53 PM EDT / 2021.07.27 2253 UTC
Visibility: 10 mile(s):0
Sky conditions: clear
Temperature: 100.9 F (38.3 C)
Heat index: 97.5 F (36.4 C):1
Dew Point: 48.9 F (9.4 C)
Relative Humidity: 17%
Pressure (altimeter): 29.94 in. Hg (1013 hPa)
ob: KVGT 272253Z 10SM CLR 38/09 A2994 RMK AO2 SLP127 T03830094 PNO
cycle: 23

Station Type Date Time Source
KVGT TAF 2021/07/27 19:39 UTC NOAA

TAF
AMD KVGT 271837Z 2719/2818 14008KT P6SM SCT120
FM280300 22008KT P6SM FEW150 SCT250
FM280700 32006KT P6SM FEW150 SCT250
FM281300 VRB05KT P6SM FEW150 SCT250
FM281700 09006KT P6SM FEW150 SCT250

Example: see airport list